createdAt,value
2023-03-12T00:02:19.018Z,4.82
2023-03-12T00:05:05.332Z,4.15
2023-03-12T00:07:51.990Z,5.85
2023-03-12T00:10:39.535Z,5.78
2023-03-12T00:13:25.604Z,6.00
2023-03-12T00:16:14.098Z,4.47
2023-03-12T00:19:01.407Z,4.70
2023-03-12T00:21:47.568Z,4.97
2023-03-12T00:24:33.604Z,4.80
2023-03-12T00:27:20.620Z,4.05
2023-03-12T00:30:07.721Z,3.70
2023-03-12T00:32:53.405Z,3.50
2023-03-12T00:35:39.293Z,3.53
2023-03-12T00:38:25.217Z,4.00
2023-03-12T00:41:11.144Z,3.45
2023-03-12T00:43:57.727Z,3.25
2023-03-12T00:46:43.887Z,3.53
2023-03-12T00:49:29.535Z,3.40
2023-03-12T00:52:15.511Z,3.85
2023-03-12T00:55:01.267Z,3.28
2023-03-12T00:57:47.126Z,3.80
2023-03-12T01:00:33.083Z,3.42
2023-03-12T01:03:19.267Z,4.10
2023-03-12T01:06:06.056Z,3.95
2023-03-12T01:08:52.514Z,3.33
2023-03-12T01:11:39.028Z,3.15
2023-03-12T01:14:25.555Z,3.67
2023-03-12T01:17:11.707Z,3.55
2023-03-12T01:19:57.557Z,3.40
2023-03-12T01:22:44.246Z,3.50
2023-03-12T01:25:30.496Z,3.40
2023-03-12T01:28:16.227Z,3.50
2023-03-12T01:31:13.412Z,3.65
2023-03-12T01:33:59.436Z,2.97
2023-03-12T01:36:47.789Z,4.47
2023-03-12T01:39:33.521Z,3.70
2023-03-12T01:42:19.393Z,3.38
2023-03-12T01:45:06.139Z,3.78
2023-03-12T01:47:53.102Z,3.55
2023-03-12T01:50:39.062Z,3.80
2023-03-12T01:53:25.443Z,3.40
2023-03-12T01:56:12.450Z,4.80
2023-03-12T01:59:15.560Z,4.32
2023-03-12T02:02:06.702Z,3.85
2023-03-12T02:05:04.644Z,3.83
2023-03-12T02:07:51.580Z,3.95
2023-03-12T02:10:37.843Z,4.45
2023-03-12T02:13:23.934Z,3.72
2023-03-12T02:16:10.248Z,3.20
2023-03-12T02:18:57.392Z,3.40
2023-03-12T02:21:43.612Z,4.35
2023-03-12T02:24:40.057Z,4.53
2023-03-12T02:27:27.526Z,4.43
2023-03-12T02:30:18.654Z,3.58
2023-03-12T02:33:07.519Z,4.13
2023-03-12T02:35:54.477Z,4.00
2023-03-12T02:38:52.023Z,3.78
2023-03-12T02:41:54.621Z,4.45
2023-03-12T02:44:43.765Z,4.00
2023-03-12T02:47:33.090Z,3.90
2023-03-12T02:50:19.488Z,4.18
2023-03-12T02:53:05.297Z,4.05
2023-03-12T02:55:52.040Z,3.72
2023-03-12T02:58:38.038Z,3.80
2023-03-12T03:01:23.970Z,3.67
2023-03-12T03:04:11.794Z,3.80
2023-03-12T03:06:58.040Z,3.83
2023-03-12T03:09:44.461Z,3.90
2023-03-12T03:12:31.344Z,3.40
2023-03-12T03:15:18.665Z,3.88
2023-03-12T03:18:05.238Z,3.83
2023-03-12T03:20:59.722Z,4.35
2023-03-12T03:23:47.876Z,3.80
2023-03-12T03:26:34.218Z,5.15
2023-03-12T03:29:20.756Z,4.70
2023-03-12T03:32:07.371Z,4.78
2023-03-12T03:34:53.173Z,4.18
2023-03-12T03:37:39.710Z,4.00
2023-03-12T03:40:25.951Z,3.90
2023-03-12T03:43:11.683Z,4.22
2023-03-12T03:46:03.059Z,3.97
2023-03-12T03:48:53.008Z,4.22
2023-03-12T03:51:42.657Z,4.20
2023-03-12T03:54:32.091Z,4.37
2023-03-12T03:57:18.926Z,3.70
2023-03-12T04:00:09.583Z,4.10
2023-03-12T04:02:59.407Z,4.00
2023-03-12T04:05:45.597Z,3.72
2023-03-12T04:08:35.462Z,3.15
2023-03-12T04:11:22.703Z,3.95
2023-03-12T04:14:08.630Z,3.35
2023-03-12T04:16:57.043Z,3.60
2023-03-12T04:19:42.843Z,3.53
2023-03-12T04:22:28.832Z,3.65
2023-03-12T04:25:14.762Z,3.50
2023-03-12T04:28:01.353Z,3.22
2023-03-12T04:30:59.616Z,3.25
2023-03-12T04:33:46.337Z,3.17
2023-03-12T04:36:32.643Z,3.55
2023-03-12T04:39:20.400Z,3.55
2023-03-12T04:42:09.868Z,2.72
2023-03-12T04:44:56.276Z,3.13
2023-03-12T04:47:42.150Z,3.00
2023-03-12T04:50:29.214Z,3.53
2023-03-12T04:53:16.672Z,3.25
2023-03-12T04:56:02.353Z,3.20
2023-03-12T04:58:49.369Z,3.08
2023-03-12T05:01:36.800Z,3.72
2023-03-12T05:04:27.626Z,3.35
2023-03-12T05:07:15.220Z,2.45
2023-03-12T05:10:01.336Z,2.83
2023-03-12T05:12:47.467Z,2.60
2023-03-12T05:15:37.047Z,2.88
2023-03-12T05:18:23.392Z,2.47
2023-03-12T05:21:12.515Z,3.05
2023-03-12T05:23:59.123Z,3.00
2023-03-12T05:26:47.238Z,3.15
2023-03-12T05:29:36.505Z,3.08
2023-03-12T05:32:23.464Z,3.20
2023-03-12T05:35:09.946Z,3.40
2023-03-12T05:37:56.073Z,3.85
2023-03-12T05:40:41.826Z,2.92
2023-03-12T05:43:27.793Z,2.80
2023-03-12T05:46:14.865Z,3.00
2023-03-12T05:49:00.853Z,3.38
2023-03-12T05:51:49.146Z,2.75
2023-03-12T05:54:35.598Z,3.00
2023-03-12T05:57:24.072Z,3.25
2023-03-12T06:00:12.664Z,2.75
2023-03-12T06:03:01.747Z,2.67
2023-03-12T06:05:48.383Z,2.70
2023-03-12T06:08:34.463Z,2.80
2023-03-12T06:11:20.323Z,3.58
2023-03-12T06:14:07.087Z,2.80
2023-03-12T06:16:54.919Z,3.50
2023-03-12T06:19:40.601Z,2.90
2023-03-12T06:22:26.881Z,2.60
2023-03-12T06:25:12.675Z,3.30
2023-03-12T06:28:00.000Z,3.10
2023-03-12T06:30:45.727Z,2.65
2023-03-12T06:33:32.047Z,3.00
2023-03-12T06:36:18.159Z,2.70
2023-03-12T06:39:06.507Z,2.60
2023-03-12T06:41:52.173Z,3.08
2023-03-12T06:44:37.765Z,2.85
2023-03-12T06:47:23.550Z,2.75
2023-03-12T06:50:09.976Z,3.45
2023-03-12T06:52:56.105Z,3.63
2023-03-12T06:55:43.659Z,3.00
2023-03-12T06:58:29.732Z,3.28
2023-03-12T07:01:15.540Z,3.22
2023-03-12T07:04:01.543Z,2.90
2023-03-12T07:06:51.419Z,3.20
2023-03-12T07:09:37.566Z,3.03
2023-03-12T07:12:23.855Z,2.85
2023-03-12T07:15:10.178Z,2.75
2023-03-12T07:17:57.145Z,2.80
2023-03-12T07:20:43.875Z,3.17
2023-03-12T07:23:29.894Z,2.58
2023-03-12T07:26:15.974Z,4.05
2023-03-12T07:29:03.116Z,2.22
2023-03-12T07:31:48.905Z,2.65
2023-03-12T07:34:34.972Z,2.50
2023-03-12T07:37:21.311Z,2.50
2023-03-12T07:40:08.186Z,2.75
2023-03-12T07:42:54.255Z,2.67
2023-03-12T07:45:40.407Z,2.80
2023-03-12T07:48:26.336Z,2.35
2023-03-12T07:51:12.225Z,2.42
2023-03-12T07:53:58.034Z,2.10
2023-03-12T07:56:43.955Z,2.30
2023-03-12T07:59:29.919Z,2.17
2023-03-12T08:02:16.109Z,2.20
2023-03-12T08:05:02.392Z,1.92
2023-03-12T08:07:48.164Z,1.83
2023-03-12T08:10:33.987Z,2.00
2023-03-12T08:13:20.054Z,2.35
2023-03-12T08:16:08.946Z,1.60
2023-03-12T08:18:55.479Z,1.95
2023-03-12T08:21:41.796Z,2.38
2023-03-12T08:24:27.532Z,1.90
2023-03-12T08:27:14.418Z,1.67
2023-03-12T08:30:00.341Z,2.50
2023-03-12T08:32:46.537Z,1.85
2023-03-12T08:35:32.561Z,2.00
2023-03-12T08:38:18.370Z,1.98
2023-03-12T08:41:04.349Z,2.00
2023-03-12T08:43:50.209Z,1.88
2023-03-12T08:46:36.138Z,1.92
2023-03-12T08:49:22.664Z,2.30
2023-03-12T08:52:08.995Z,1.98
2023-03-12T08:54:55.054Z,1.88
2023-03-12T08:57:41.118Z,2.00
2023-03-12T09:00:27.100Z,2.10
2023-03-12T09:03:14.937Z,2.00
2023-03-12T09:06:17.009Z,2.17
2023-03-12T09:09:06.436Z,2.00
2023-03-12T09:11:52.225Z,2.30
2023-03-12T09:17:44.205Z,1.92
2023-03-12T09:20:30.248Z,1.80
2023-03-12T09:23:16.137Z,2.15
2023-03-12T09:26:01.954Z,2.28
2023-03-12T09:28:47.874Z,1.90
2023-03-12T09:31:36.118Z,1.90
2023-03-12T09:34:22.534Z,2.38
2023-03-12T09:37:08.519Z,1.98
2023-03-12T09:39:55.779Z,2.10
2023-03-12T09:42:47.975Z,2.10
2023-03-12T09:45:42.791Z,2.10
2023-03-12T09:48:36.231Z,2.40
2023-03-12T09:51:44.842Z,2.58
2023-03-12T09:54:42.695Z,2.05
2023-03-12T09:57:30.056Z,2.35
2023-03-12T10:00:22.518Z,2.00
2023-03-12T10:03:23.887Z,2.00
2023-03-12T10:06:21.494Z,1.60
2023-03-12T10:09:29.969Z,1.70
2023-03-12T10:12:30.087Z,1.70
2023-03-12T10:15:28.366Z,1.98
2023-03-12T10:18:35.989Z,1.55
2023-03-12T10:21:31.397Z,1.70
2023-03-12T10:24:28.953Z,1.75
2023-03-12T10:27:17.731Z,1.80
2023-03-12T10:30:14.495Z,1.70
2023-03-12T10:33:04.466Z,1.67
2023-03-12T10:35:52.060Z,1.80
2023-03-12T10:38:38.082Z,1.98
2023-03-12T10:41:26.656Z,1.70
2023-03-12T10:44:21.776Z,1.50
2023-03-12T10:47:17.925Z,2.00
2023-03-12T10:50:26.759Z,1.67
2023-03-12T10:53:28.567Z,1.50
2023-03-12T10:56:17.950Z,1.63
2023-03-12T10:59:21.177Z,1.65
2023-03-12T11:05:49.628Z,1.52
2023-03-12T11:08:36.900Z,1.70
2023-03-12T11:11:35.084Z,1.45
2023-03-12T11:14:29.417Z,1.50
2023-03-12T11:17:27.016Z,1.33
2023-03-12T11:20:25.342Z,1.83
2023-03-12T11:23:17.035Z,1.70
2023-03-12T11:26:25.578Z,1.50
2023-03-12T11:29:14.604Z,1.30
2023-03-12T11:32:11.030Z,1.50
2023-03-12T11:34:57.630Z,1.77
2023-03-12T11:37:52.776Z,2.00
2023-03-12T11:40:57.177Z,1.40
2023-03-12T11:44:01.911Z,1.60
2023-03-12T11:47:02.920Z,2.00
2023-03-12T11:50:08.768Z,1.70
2023-03-12T11:53:17.537Z,2.17
2023-03-12T11:56:39.692Z,1.38
2023-03-12T11:59:41.821Z,1.80
2023-03-12T12:02:55.727Z,1.50
2023-03-12T12:05:51.090Z,1.65
2023-03-12T12:08:55.224Z,1.50
2023-03-12T12:11:56.786Z,1.50
2023-03-12T12:15:20.693Z,1.35
2023-03-12T12:18:40.662Z,1.50
2023-03-12T12:21:55.466Z,1.40
2023-03-12T12:25:18.202Z,1.60
2023-03-12T12:28:23.058Z,1.60
2023-03-12T12:31:19.045Z,1.30
2023-03-12T12:34:30.134Z,6.40
2023-03-12T12:37:44.823Z,1.92
2023-03-12T12:40:37.508Z,1.95
2023-03-12T12:46:22.498Z,1.48
2023-03-12T12:49:23.892Z,1.60
2023-03-12T12:52:13.718Z,1.65
2023-03-12T12:55:10.708Z,1.40
2023-03-12T12:58:01.484Z,1.63
2023-03-12T13:00:55.043Z,1.48
2023-03-12T13:03:41.074Z,1.98
2023-03-12T13:07:08.532Z,1.65
2023-03-12T13:09:57.173Z,1.50
2023-03-12T13:12:49.938Z,1.48
2023-03-12T13:18:28.448Z,1.30
2023-03-12T13:21:19.890Z,1.90
2023-03-12T13:24:17.120Z,1.40
2023-03-12T13:27:28.721Z,1.30
2023-03-12T13:30:33.058Z,1.20
2023-03-12T13:33:21.805Z,1.45
2023-03-12T13:36:16.725Z,1.60
2023-03-12T13:39:08.472Z,1.90
2023-03-12T13:41:59.022Z,1.10
2023-03-12T13:44:46.612Z,1.27
2023-03-12T13:47:39.047Z,1.50
2023-03-12T13:50:25.505Z,1.75
2023-03-12T13:53:17.136Z,1.65
2023-03-12T13:56:10.771Z,1.55
2023-03-12T13:59:00.519Z,1.42
2023-03-12T14:01:51.399Z,1.30
2023-03-12T14:04:39.123Z,1.33
2023-03-12T14:07:40.250Z,1.50
2023-03-12T14:10:32.327Z,1.45
2023-03-12T14:13:25.763Z,2.00
2023-03-12T14:16:35.899Z,1.35
2023-03-12T14:19:27.436Z,1.30
2023-03-12T14:22:13.748Z,1.15
2023-03-12T14:25:04.437Z,1.30
2023-03-12T14:27:50.372Z,1.45
2023-03-12T14:30:54.543Z,1.23
2023-03-12T14:33:52.530Z,1.15
2023-03-12T14:36:41.761Z,1.45
2023-03-12T14:39:46.178Z,1.50
2023-03-12T14:42:34.589Z,1.40
2023-03-12T14:45:23.557Z,2.30
2023-03-12T14:48:12.014Z,1.38
2023-03-12T14:50:59.921Z,1.60
2023-03-12T14:53:45.984Z,1.30
2023-03-12T14:56:35.890Z,1.42
2023-03-12T14:59:25.590Z,1.75
2023-03-12T15:02:14.528Z,1.33
2023-03-12T15:05:01.900Z,1.30
2023-03-12T15:07:49.006Z,1.13
2023-03-12T15:10:35.390Z,1.42
2023-03-12T15:13:23.229Z,1.63
2023-03-12T15:16:09.301Z,1.40
2023-03-12T15:18:55.258Z,1.50
2023-03-12T15:21:41.532Z,1.33
2023-03-12T15:24:29.128Z,1.55
2023-03-12T15:27:28.801Z,1.30
2023-03-12T15:30:26.038Z,1.90
2023-03-12T15:33:24.583Z,1.92
2023-03-12T15:36:19.960Z,1.77
2023-03-12T15:39:32.774Z,1.65
2023-03-12T15:42:23.558Z,1.20
2023-03-12T15:45:21.371Z,1.50
2023-03-12T15:48:30.050Z,1.58
2023-03-12T15:51:36.664Z,1.30
2023-03-12T15:54:27.365Z,2.15
2023-03-12T15:57:26.067Z,1.70
2023-03-12T16:00:14.813Z,1.30
2023-03-12T16:03:06.221Z,1.70
2023-03-12T16:05:52.012Z,1.15
2023-03-12T16:08:45.036Z,1.80
2023-03-12T16:11:33.435Z,1.88
2023-03-12T16:14:24.588Z,1.45
2023-03-12T16:17:14.070Z,2.42
2023-03-12T16:20:00.006Z,2.28
2023-03-12T16:22:45.824Z,1.50
2023-03-12T16:25:31.792Z,1.95
2023-03-12T16:28:19.408Z,1.85
2023-03-12T16:31:11.470Z,1.42
2023-03-12T16:33:58.194Z,2.25
2023-03-12T16:36:44.331Z,3.72
2023-03-12T16:39:33.281Z,3.65
2023-03-12T16:42:20.046Z,6.25
2023-03-12T16:45:09.155Z,1.80
2023-03-12T16:48:00.178Z,1.80
2023-03-12T16:50:53.031Z,1.75
2023-03-12T16:53:38.934Z,1.70
2023-03-12T16:56:26.182Z,2.10
2023-03-12T16:59:23.833Z,2.33
2023-03-12T17:02:15.943Z,2.70
2023-03-12T17:05:02.286Z,2.08
2023-03-12T17:07:48.246Z,3.20
2023-03-12T17:10:34.198Z,2.67
2023-03-12T17:13:22.932Z,2.47
2023-03-12T17:16:11.543Z,2.40
2023-03-12T17:18:57.440Z,2.60
2023-03-12T17:21:44.303Z,3.70
2023-03-12T17:24:30.403Z,3.00
2023-03-12T17:27:16.594Z,3.83
2023-03-12T17:30:02.936Z,3.00
2023-03-12T17:32:50.257Z,3.00
2023-03-12T17:35:37.090Z,2.75
2023-03-12T17:38:24.760Z,3.92
2023-03-12T17:41:25.564Z,3.75
2023-03-12T17:44:14.867Z,3.20
2023-03-12T17:47:02.224Z,3.30
2023-03-12T17:49:48.527Z,3.33
2023-03-12T17:52:34.395Z,6.60
2023-03-12T17:55:20.230Z,5.30
2023-03-12T17:58:06.442Z,5.68
2023-03-12T18:00:52.380Z,8.40
2023-03-12T18:03:38.473Z,9.40
2023-03-12T18:06:25.045Z,10.55
2023-03-12T18:09:11.018Z,7.57
2023-03-12T18:11:56.952Z,4.65
2023-03-12T18:14:42.767Z,5.25
2023-03-12T18:17:28.691Z,3.05
2023-03-12T18:20:19.562Z,3.40
2023-03-12T18:23:11.763Z,3.00
2023-03-12T18:25:57.604Z,3.38
2023-03-12T18:28:43.527Z,4.03
2023-03-12T18:31:29.542Z,4.53
2023-03-12T18:34:16.106Z,5.78
2023-03-12T18:37:02.098Z,4.30
2023-03-12T18:39:48.116Z,4.93
2023-03-12T18:42:34.249Z,5.20
2023-03-12T18:45:20.133Z,4.50
2023-03-12T18:48:05.996Z,3.63
2023-03-12T18:50:51.906Z,4.35
2023-03-12T18:53:37.767Z,4.38
2023-03-12T18:56:23.620Z,3.35
2023-03-12T18:59:14.608Z,2.80
2023-03-12T19:02:00.572Z,3.78
2023-03-12T19:04:46.369Z,3.05
2023-03-12T19:07:32.546Z,4.55
2023-03-12T19:10:18.984Z,3.53
2023-03-12T19:13:04.968Z,2.97
2023-03-12T19:15:58.086Z,6.03
2023-03-12T19:18:43.902Z,3.95
2023-03-12T19:21:29.701Z,5.43
2023-03-12T19:24:15.619Z,6.18
2023-03-12T19:27:01.399Z,6.65
2023-03-12T19:29:47.224Z,3.40
2023-03-12T19:32:42.554Z,2.92
2023-03-12T19:35:29.256Z,3.30
2023-03-12T19:38:15.115Z,5.53
2023-03-12T19:41:00.959Z,3.58
2023-03-12T19:43:46.754Z,4.60
2023-03-12T19:46:32.862Z,4.32
2023-03-12T19:49:18.858Z,4.90
2023-03-12T19:52:04.650Z,5.32
2023-03-12T19:55:03.470Z,5.63
2023-03-12T19:57:50.515Z,4.78
2023-03-12T20:00:36.707Z,5.18
2023-03-12T20:03:23.257Z,5.13
2023-03-12T20:06:10.309Z,7.47
2023-03-12T20:08:56.329Z,6.10
2023-03-12T20:11:42.069Z,6.15
2023-03-12T20:14:28.109Z,5.22
2023-03-12T20:17:15.003Z,5.70
2023-03-12T20:20:01.495Z,5.22
2023-03-12T20:22:49.513Z,5.70
2023-03-12T20:25:39.550Z,5.03
2023-03-12T20:28:25.536Z,4.40
2023-03-12T20:31:14.046Z,6.22
2023-03-12T20:34:00.215Z,4.70
2023-03-12T20:36:46.214Z,10.98
2023-03-12T20:39:31.846Z,6.80
2023-03-12T20:42:17.667Z,6.93
2023-03-12T20:45:03.836Z,6.55
2023-03-12T20:47:50.181Z,7.80
2023-03-12T20:50:37.885Z,6.15
2023-03-12T20:53:23.664Z,6.82
2023-03-12T20:56:10.610Z,5.97
2023-03-12T20:58:57.275Z,5.45
2023-03-12T21:01:43.467Z,5.15
2023-03-12T21:04:29.712Z,7.85
2023-03-12T21:07:15.540Z,6.35
2023-03-12T21:10:01.251Z,9.13
2023-03-12T21:12:47.143Z,12.35
2023-03-12T21:15:33.081Z,16.63
2023-03-12T21:18:19.270Z,17.05
2023-03-12T21:21:06.778Z,19.95
2023-03-12T21:23:53.289Z,18.23
2023-03-12T21:26:39.016Z,14.95
2023-03-12T21:29:24.882Z,13.70
2023-03-12T21:32:10.740Z,11.65
2023-03-12T21:34:56.693Z,12.27
2023-03-12T21:37:43.608Z,18.13
2023-03-12T21:40:29.382Z,15.95
2023-03-12T21:43:15.182Z,27.08
2023-03-12T21:46:12.165Z,15.63
2023-03-12T21:49:01.481Z,11.52
2023-03-12T21:51:47.303Z,9.10
2023-03-12T21:54:34.288Z,7.72
2023-03-12T21:57:20.424Z,7.68
2023-03-12T22:00:11.782Z,6.75
2023-03-12T22:02:57.687Z,7.53
2023-03-12T22:05:43.424Z,13.98
2023-03-12T22:08:29.399Z,13.20
2023-03-12T22:11:15.940Z,13.18
2023-03-12T22:14:02.008Z,10.75
2023-03-12T22:16:48.050Z,11.65
2023-03-12T22:19:33.853Z,10.68
2023-03-12T22:22:19.733Z,12.45
2023-03-12T22:25:05.954Z,12.95
2023-03-12T22:27:51.989Z,12.18
2023-03-12T22:30:37.900Z,8.07
2023-03-12T22:33:23.691Z,7.07
2023-03-12T22:36:12.652Z,7.10
2023-03-12T22:38:58.488Z,7.30
2023-03-12T22:41:44.352Z,13.25
2023-03-12T22:44:30.234Z,10.13
2023-03-12T22:47:15.922Z,8.93
2023-03-12T22:50:01.922Z,7.45
2023-03-12T22:52:47.715Z,5.70
2023-03-12T22:55:33.999Z,5.15
2023-03-12T22:58:20.072Z,5.00
2023-03-12T23:01:14.518Z,5.60
2023-03-12T23:04:00.645Z,4.78
2023-03-12T23:06:46.835Z,5.57
2023-03-12T23:09:32.606Z,5.55
2023-03-12T23:12:18.504Z,5.80
2023-03-12T23:15:04.748Z,5.97
2023-03-12T23:17:50.867Z,6.90
2023-03-12T23:20:36.892Z,6.00
2023-03-12T23:23:22.695Z,5.88
2023-03-12T23:26:08.828Z,6.35
2023-03-12T23:28:56.113Z,6.28
2023-03-12T23:31:41.938Z,6.82
2023-03-12T23:34:27.811Z,6.28
2023-03-12T23:37:14.346Z,6.93
2023-03-12T23:40:00.252Z,6.63
2023-03-12T23:42:46.067Z,5.40
2023-03-12T23:45:31.863Z,5.35
2023-03-12T23:48:17.950Z,5.85
2023-03-12T23:51:15.968Z,5.53
2023-03-12T23:54:05.389Z,6.88
2023-03-12T23:56:51.394Z,6.57
2023-03-12T23:59:37.493Z,6.47
